createdAt,value
2016-02-04T00:00:43.966Z,73.24
2016-02-04T00:01:43.985Z,73.24
2016-02-04T00:02:43.956Z,73.05
2016-02-04T00:03:43.959Z,72.86
2016-02-04T00:04:54.977Z,73.33
2016-02-04T00:05:43.948Z,72.19
2016-02-04T00:06:50.748Z,73.05
2016-02-04T00:07:43.969Z,72.57
2016-02-04T00:08:43.956Z,72.57
2016-02-04T00:09:43.959Z,72.57
2016-02-04T00:10:50.790Z,72.67
2016-02-04T00:11:43.917Z,72.38
2016-02-04T00:12:43.940Z,72.57
2016-02-04T00:13:43.912Z,71.72
2016-02-04T00:14:43.914Z,72.57
2016-02-04T00:15:43.901Z,72
2016-02-04T00:16:44.247Z,71.72
2016-02-04T00:17:43.969Z,72.48
2016-02-04T00:18:51.112Z,72
2016-02-04T00:19:43.974Z,72.38
2016-02-04T00:20:43.961Z,72.38
2016-02-04T00:21:43.965Z,72.19
2016-02-04T00:22:48.514Z,72.67
2016-02-04T00:23:43.892Z,72.48
2016-02-04T00:24:51.004Z,72.77
2016-02-04T00:25:51.100Z,71.91
2016-02-04T00:26:43.868Z,72
2016-02-04T00:27:43.871Z,71.91
2016-02-04T00:28:43.874Z,72.29
2016-02-04T00:29:43.892Z,72.77
2016-02-04T00:30:43.864Z,72.48
2016-02-04T00:31:51.039Z,72.57
2016-02-04T00:32:55.776Z,72.96
2016-02-04T00:33:43.873Z,72.67
2016-02-04T00:34:43.860Z,72.96
2016-02-04T00:35:43.847Z,72.67
2016-02-04T00:36:43.850Z,72.1
2016-02-04T00:37:43.853Z,72
2016-02-04T00:38:43.855Z,72.67
2016-02-04T00:39:43.842Z,72.86
2016-02-04T00:40:43.829Z,72.86
2016-02-04T00:41:51.118Z,72.48
2016-02-04T00:42:43.837Z,72.57
2016-02-04T00:43:43.840Z,73.24
2016-02-04T00:44:43.813Z,73.33
2016-02-04T00:45:43.831Z,73.24
2016-02-04T00:46:43.849Z,73.05
2016-02-04T00:47:43.837Z,72.77
2016-02-04T00:48:43.828Z,72.48
2016-02-04T00:49:43.830Z,72.1
2016-02-04T00:50:43.802Z,72.77
2016-02-04T00:51:43.805Z,72.96
2016-02-04T00:52:43.793Z,72.86
2016-02-04T00:53:43.779Z,72.48
2016-02-04T00:54:43.782Z,72.86
2016-02-04T00:55:43.785Z,72.57
2016-02-04T00:56:43.788Z,72.86
2016-02-04T00:57:43.776Z,73.33
2016-02-04T00:58:43.763Z,72.38
2016-02-04T00:59:43.781Z,73.14
2016-02-04T01:00:43.768Z,72.67
2016-02-04T01:01:43.787Z,73.14
2016-02-04T01:02:48.195Z,72.77
2016-02-04T01:03:43.761Z,72.57
2016-02-04T01:04:43.764Z,72.48
2016-02-04T01:05:43.767Z,72.57
2016-02-04T01:06:43.770Z,72.96
2016-02-04T01:07:43.741Z,72.96
2016-02-04T01:08:50.744Z,72.96
2016-02-04T01:09:43.732Z,73.52
2016-02-04T01:10:43.734Z,72.77
2016-02-04T01:11:43.738Z,72.67
2016-02-04T01:12:43.726Z,73.05
2016-02-04T01:13:43.743Z,73.43
2016-02-04T01:14:43.739Z,73.05
2016-02-04T01:15:43.715Z,72.86
2016-02-04T01:16:43.693Z,73.24
2016-02-04T01:17:43.668Z,73.24
2016-02-04T01:18:50.831Z,73.14
2016-02-04T01:19:43.657Z,73.24
2016-02-04T01:20:43.640Z,72.86
2016-02-04T01:21:43.655Z,73.24
2016-02-04T01:22:43.653Z,72.67
2016-02-04T01:23:43.623Z,73.14
2016-02-04T01:24:43.608Z,72.67
2016-02-04T01:25:43.609Z,72.86
2016-02-04T01:26:43.610Z,73.24
2016-02-04T01:27:43.612Z,73.14
2016-02-04T01:28:43.597Z,72.77
2016-02-04T01:29:43.630Z,72.19
2016-02-04T01:30:43.585Z,72.77
2016-02-04T01:31:54.947Z,72.57
2016-02-04T01:32:43.606Z,71.25
2016-02-04T01:33:43.577Z,71.15
2016-02-04T01:34:43.579Z,70.2
2016-02-04T01:35:43.597Z,70.78
2016-02-04T01:36:43.570Z,69.92
2016-02-04T01:37:43.573Z,69.35
2016-02-04T01:38:43.575Z,69.64
2016-02-04T01:39:43.561Z,69.92
2016-02-04T01:40:43.580Z,69.07
2016-02-04T01:41:43.567Z,68.88
2016-02-04T01:42:43.570Z,68.88
2016-02-04T01:43:43.557Z,68.88
2016-02-04T01:44:43.544Z,68.12
2016-02-04T01:45:43.543Z,67.93
2016-02-04T01:46:43.545Z,67.96
2016-02-04T01:47:43.548Z,67.96
2016-02-04T01:48:43.536Z,67.87
2016-02-04T01:49:43.539Z,67.3
2016-02-04T01:50:43.542Z,67.77
2016-02-04T01:51:43.545Z,67.96
2016-02-04T01:52:43.531Z,68.15
2016-02-04T01:53:43.518Z,67.87
2016-02-04T01:54:43.520Z,67.87
2016-02-04T01:55:43.540Z,67.4
2016-02-04T01:56:43.526Z,67.58
2016-02-04T01:57:43.529Z,67.4
2016-02-04T01:58:43.516Z,67.02
2016-02-04T01:59:43.504Z,66.35
2016-02-04T02:00:43.506Z,66.93
2016-02-04T02:01:43.525Z,67.11
2016-02-04T02:02:43.496Z,67.02
2016-02-04T02:03:43.499Z,66.64
2016-02-04T02:04:43.502Z,66.64
2016-02-04T02:05:43.489Z,66.16
2016-02-04T02:06:43.507Z,65.69
2016-02-04T02:07:50.651Z,65.12
2016-02-04T02:08:43.482Z,65.22
2016-02-04T02:09:43.485Z,65.31
2016-02-04T02:10:43.488Z,65.5
2016-02-04T02:11:43.490Z,65.41
2016-02-04T02:12:43.492Z,65.5
2016-02-04T02:13:43.480Z,65.22
2016-02-04T02:14:43.467Z,65.03
2016-02-04T02:15:43.469Z,64.84
2016-02-04T02:16:43.462Z,64.84
2016-02-04T02:17:43.467Z,65.12
2016-02-04T02:18:43.469Z,64.65
2016-02-04T02:19:43.472Z,64.46
2016-02-04T02:20:43.490Z,64.08
2016-02-04T02:21:43.446Z,64.55
2016-02-04T02:22:43.449Z,64.27
2016-02-04T02:23:43.451Z,64.65
2016-02-04T02:24:43.454Z,64.17
2016-02-04T02:25:43.457Z,64.36
2016-02-04T02:26:43.443Z,64.46
2016-02-04T02:27:43.446Z,64.46
2016-02-04T02:28:49.840Z,64.55
2016-02-04T02:29:43.434Z,63.89
2016-02-04T02:30:43.421Z,63.32
2016-02-04T02:31:43.440Z,62.94
2016-02-04T02:32:43.411Z,63.13
2016-02-04T02:33:43.413Z,63.42
2016-02-04T02:34:43.416Z,62.66
2016-02-04T02:35:43.403Z,62.75
2016-02-04T02:36:43.407Z,62.37
2016-02-04T02:37:43.409Z,62.75
2016-02-04T02:38:49.818Z,62.28
2016-02-04T02:39:43.399Z,62.08
2016-02-04T02:40:43.388Z,62.18
2016-02-04T02:41:47.500Z,62.47
2016-02-04T02:42:43.408Z,62.47
2016-02-04T02:43:43.396Z,62.66
2016-02-04T02:44:43.444Z,63.04
2016-02-04T02:45:43.385Z,63.04
2016-02-04T02:46:43.387Z,62.66
2016-02-04T02:47:43.393Z,63.13
2016-02-04T02:48:43.395Z,63.32
2016-02-04T02:49:43.382Z,63.04
2016-02-04T02:50:47.603Z,62.94
2016-02-04T02:51:43.372Z,63.23
2016-02-04T02:52:43.364Z,63.32
2016-02-04T02:53:43.365Z,63.42
2016-02-04T02:54:43.385Z,63.42
2016-02-04T02:55:43.355Z,63.79
2016-02-04T02:56:43.374Z,63.7
2016-02-04T02:57:43.346Z,63.32
2016-02-04T02:58:43.349Z,64.08
2016-02-04T02:59:43.353Z,64.08
2016-02-04T03:00:43.355Z,63.79
2016-02-04T03:01:43.358Z,64.46
2016-02-04T03:02:43.345Z,64.17
2016-02-04T03:03:43.175Z,63.89
2016-02-04T03:04:43.334Z,63.7
2016-02-04T03:05:47.791Z,63.32
2016-02-04T03:06:43.340Z,63.98
2016-02-04T03:07:43.342Z,64.27
2016-02-04T03:08:43.344Z,64.46
2016-02-04T03:09:43.332Z,64.93
2016-02-04T03:10:43.336Z,64.93
2016-02-04T03:11:43.322Z,64.84
2016-02-04T03:12:43.310Z,64.46
2016-02-04T03:13:43.312Z,64.36
2016-02-04T03:14:43.315Z,64.27
2016-02-04T03:15:43.318Z,64.55
2016-02-04T03:16:43.305Z,64.65
2016-02-04T03:17:43.308Z,65.12
2016-02-04T03:18:43.295Z,64.17
2016-02-04T03:19:47.708Z,64.46
2016-02-04T03:20:43.305Z,65.22
2016-02-04T03:21:50.074Z,65.12
2016-02-04T03:22:50.155Z,64.93
2016-02-04T03:23:43.284Z,65.97
2016-02-04T03:24:43.287Z,65.59
2016-02-04T03:25:43.290Z,65.22
2016-02-04T03:26:47.355Z,66.07
2016-02-04T03:27:43.279Z,65.97
2016-02-04T03:28:43.282Z,66.35
2016-02-04T03:29:43.269Z,66.54
2016-02-04T03:30:43.287Z,66.45
2016-02-04T03:31:43.276Z,66.64
2016-02-04T03:32:43.279Z,66.93
2016-02-04T03:33:43.266Z,67.21
2016-02-04T03:34:43.268Z,67.4
2016-02-04T03:35:43.270Z,67.68
2016-02-04T03:36:43.278Z,67.4
2016-02-04T03:37:43.250Z,68.15
2016-02-04T03:38:43.253Z,68.35
2016-02-04T03:39:43.256Z,68.06
2016-02-04T03:40:43.259Z,67.96
2016-02-04T03:41:49.964Z,68.15
2016-02-04T03:42:43.233Z,68.15
2016-02-04T03:43:43.235Z,68.25
2016-02-04T03:44:43.238Z,68.44
2016-02-04T03:45:43.241Z,68.35
2016-02-04T03:46:43.243Z,68.35
2016-02-04T03:47:43.223Z,68.91
2016-02-04T03:48:43.226Z,68.73
2016-02-04T03:49:43.229Z,69.2
2016-02-04T03:50:43.232Z,69.29
2016-02-04T03:51:47.625Z,69.77
2016-02-04T03:52:43.222Z,70.05
2016-02-04T03:53:43.209Z,70.05
2016-02-04T03:54:43.212Z,70.15
2016-02-04T03:55:43.217Z,69.96
2016-02-04T03:56:43.219Z,70.34
2016-02-04T03:57:43.206Z,70.24
2016-02-04T03:58:43.209Z,70.87
2016-02-04T03:59:43.195Z,70.68
2016-02-04T04:00:54.886Z,70.53
2016-02-04T04:01:50.201Z,70.62
2016-02-04T04:02:43.201Z,70.58
2016-02-04T04:03:43.206Z,70.9
2016-02-04T04:04:43.193Z,70.68
2016-02-04T04:05:43.196Z,70.97
2016-02-04T04:06:43.183Z,71.28
2016-02-04T04:07:43.217Z,70.39
2016-02-04T04:08:43.177Z,71.34
2016-02-04T04:09:43.179Z,72.23
2016-02-04T04:10:43.167Z,71.95
2016-02-04T04:11:43.202Z,72
2016-02-04T04:12:43.189Z,71.91
2016-02-04T04:13:43.176Z,72.38
2016-02-04T04:14:43.179Z,72.86
2016-02-04T04:15:43.165Z,73.14
2016-02-04T04:16:43.276Z,72.96
2016-02-04T04:17:43.245Z,73.24
2016-02-04T04:18:43.279Z,72.86
2016-02-04T04:19:43.219Z,73.24
2016-02-04T04:20:47.753Z,73.14
2016-02-04T04:21:43.241Z,73.14
2016-02-04T04:22:43.247Z,72.86
2016-02-04T04:23:43.202Z,73.24
2016-02-04T04:24:43.267Z,73.33
2016-02-04T04:25:43.255Z,73.43
2016-02-04T04:26:43.210Z,72.57
2016-02-04T04:27:47.964Z,73.43
2016-02-04T04:28:43.123Z,72.96
2016-02-04T04:29:50.531Z,73.14
2016-02-04T04:30:43.143Z,72.77
2016-02-04T04:31:47.990Z,72.67
2016-02-04T04:32:43.118Z,73.05
2016-02-04T04:33:43.121Z,72.77
2016-02-04T04:34:43.109Z,72.86
2016-02-04T04:35:43.113Z,72.57
2016-02-04T04:36:43.116Z,73.05
2016-02-04T04:37:43.118Z,72.86
2016-02-04T04:38:43.105Z,72.77
2016-02-04T04:39:43.108Z,73.71
2016-02-04T04:40:43.110Z,73.52
2016-02-04T04:41:43.098Z,73.52
2016-02-04T04:42:43.085Z,73.33
2016-02-04T04:43:43.088Z,73.52
2016-02-04T04:44:43.091Z,73.24
2016-02-04T04:45:43.094Z,72.86
2016-02-04T04:46:43.099Z,73.05
2016-02-04T04:47:43.087Z,73.14
2016-02-04T04:48:43.089Z,73.24
2016-02-04T04:49:43.077Z,73.8
2016-02-04T04:50:43.080Z,73.71
2016-02-04T04:51:43.082Z,73.61
2016-02-04T04:52:43.070Z,73.99
2016-02-04T04:53:43.057Z,73.8
2016-02-04T04:54:43.059Z,73.8
2016-02-04T04:55:43.062Z,73.52
2016-02-04T04:56:43.080Z,73.33
2016-02-04T04:57:49.942Z,72.67
2016-02-04T04:58:43.054Z,72.29
2016-02-04T04:59:43.057Z,72.77
2016-02-04T05:00:43.060Z,72.48
2016-02-04T05:01:43.048Z,72.67
2016-02-04T05:02:43.050Z,72.77
2016-02-04T05:03:50.100Z,72.48
2016-02-04T05:04:43.040Z,72.29
2016-02-04T05:05:43.043Z,71.53
2016-02-04T05:06:43.045Z,71.28
2016-02-04T05:07:43.051Z,71.44
2016-02-04T05:08:43.039Z,72.1
2016-02-04T05:09:43.041Z,71.81
2016-02-04T05:10:43.028Z,71.28
2016-02-04T05:11:43.031Z,71.95
2016-02-04T05:12:43.049Z,71.81
2016-02-04T05:13:43.020Z,72
2016-02-04T05:14:47.289Z,72.19
2016-02-04T05:15:49.683Z,72.57
2016-02-04T05:16:43.015Z,72.67
2016-02-04T05:17:43.033Z,72.96
2016-02-04T05:18:54.039Z,73.24
2016-02-04T05:19:43.008Z,73.61
2016-02-04T05:20:43.026Z,73.71
2016-02-04T05:21:43.013Z,74.18
2016-02-04T05:22:43.000Z,74.18
2016-02-04T05:23:42.988Z,73.71
2016-02-04T05:24:42.992Z,74.09
2016-02-04T05:25:42.995Z,74.09
2016-02-04T05:26:42.997Z,74.95
2016-02-04T05:27:42.984Z,75.04
2016-02-04T05:28:42.971Z,75.51
2016-02-04T05:29:42.973Z,74.66
2016-02-04T05:30:42.976Z,74.95
2016-02-04T05:31:51.951Z,74.47
2016-02-04T05:32:42.982Z,74.75
2016-02-04T05:33:42.985Z,75.04
2016-02-04T05:34:42.957Z,75.04
2016-02-04T05:35:42.960Z,75.51
2016-02-04T05:36:42.962Z,76.36
2016-02-04T05:37:42.965Z,75.23
2016-02-04T05:38:42.956Z,76.27
2016-02-04T05:39:42.944Z,75.32
2016-02-04T05:40:42.947Z,74.85
2016-02-04T05:41:48.699Z,75.51
2016-02-04T05:42:42.952Z,75.42
2016-02-04T05:43:42.939Z,75.89
2016-02-04T05:44:42.941Z,76.17
2016-02-04T05:45:42.929Z,76.17
2016-02-04T05:46:42.947Z,76.93
2016-02-04T05:47:42.934Z,76.84
2016-02-04T05:48:46.593Z,78.16
2016-02-04T05:49:42.924Z,78.73
2016-02-04T05:50:42.927Z,79.11
2016-02-04T05:51:42.933Z,79.68
2016-02-04T05:52:48.858Z,79.3
2016-02-04T05:53:42.922Z,79.21
2016-02-04T05:54:42.910Z,80.34
2016-02-04T05:55:42.913Z,80.06
2016-02-04T05:56:42.916Z,80.91
2016-02-04T05:57:42.903Z,80.34
2016-02-04T05:58:42.906Z,81.01
2016-02-04T05:59:42.893Z,81.01
2016-02-04T06:00:42.895Z,81.86
2016-02-04T06:01:42.898Z,81.86
2016-02-04T06:02:42.886Z,82.1
2016-02-04T06:03:42.892Z,82.86
2016-02-04T06:04:42.894Z,83.24
2016-02-04T06:05:42.881Z,83
2016-02-04T06:06:42.883Z,82.1
2016-02-04T06:07:42.870Z,81.44
2016-02-04T06:08:42.889Z,81.72
2016-02-04T06:09:42.861Z,82.1
2016-02-04T06:10:42.866Z,82.71
2016-02-04T06:11:42.869Z,82.86
2016-02-04T06:12:42.855Z,82.76
2016-02-04T06:13:49.234Z,82.86
2016-02-04T06:14:42.861Z,84.09
2016-02-04T06:15:42.850Z,83.75
2016-02-04T06:16:42.852Z,83.28
2016-02-04T06:17:42.856Z,83.09
2016-02-04T06:18:42.844Z,82.67
2016-02-04T06:19:42.831Z,83.24
2016-02-04T06:20:42.850Z,83.71
2016-02-04T06:21:42.836Z,83.14
2016-02-04T06:22:42.840Z,83.62
2016-02-04T06:23:42.827Z,83.71
2016-02-04T06:24:42.815Z,84.09
2016-02-04T06:25:42.833Z,83.52
2016-02-04T06:26:42.820Z,83.9
2016-02-04T06:27:42.823Z,83.71
2016-02-04T06:28:49.607Z,83.24
2016-02-04T06:29:42.813Z,82.86
2016-02-04T06:30:42.801Z,82.86
2016-02-04T06:31:42.819Z,82.95
2016-02-04T06:32:42.806Z,83.71
2016-02-04T06:33:42.790Z,83.81
2016-02-04T06:34:42.793Z,84.09
2016-02-04T06:35:42.781Z,84.09
2016-02-04T06:36:47.225Z,83.43
2016-02-04T06:37:42.787Z,82.86
2016-02-04T06:38:42.777Z,82.67
2016-02-04T06:39:42.764Z,82.86
2016-02-04T06:40:42.766Z,83.14
2016-02-04T06:41:42.769Z,83.33
2016-02-04T06:42:42.773Z,83.71
2016-02-04T06:43:46.590Z,84.09
2016-02-04T06:44:42.747Z,84.19
2016-02-04T06:45:48.767Z,83.9
2016-02-04T06:46:42.752Z,83.9
2016-02-04T06:47:42.755Z,83.71
2016-02-04T06:48:42.742Z,83.43
2016-02-04T06:49:48.872Z,83.24
2016-02-04T06:50:42.731Z,83.24
2016-02-04T06:51:48.862Z,83.52
2016-02-04T06:52:42.728Z,83.33
2016-02-04T06:53:42.730Z,82.67
2016-02-04T06:54:42.716Z,82.39
2016-02-04T06:55:42.720Z,81.72
2016-02-04T06:56:42.738Z,82.01
2016-02-04T06:57:42.708Z,82.24
2016-02-04T06:58:42.696Z,81.95
2016-02-04T06:59:42.699Z,81.95
2016-02-04T07:00:42.702Z,81.76
2016-02-04T07:01:42.705Z,81.76
2016-02-04T07:02:42.727Z,81.1
2016-02-04T07:03:42.682Z,81.29
2016-02-04T07:04:42.685Z,80.34
2016-02-04T07:05:42.688Z,80.25
2016-02-04T07:06:42.690Z,80.72
2016-02-04T07:07:49.178Z,80.53
2016-02-04T07:08:46.837Z,79.87
2016-02-04T07:09:42.667Z,79.87
2016-02-04T07:10:42.655Z,79.77
2016-02-04T07:11:42.658Z,79.02
2016-02-04T07:12:46.957Z,79.02
2016-02-04T07:13:42.647Z,79.21
2016-02-04T07:14:42.654Z,79.11
2016-02-04T07:15:42.641Z,79.49
2016-02-04T07:16:42.659Z,78.83
2016-02-04T07:17:42.646Z,79.11
2016-02-04T07:18:42.634Z,79.02
2016-02-04T07:19:42.637Z,79.02
2016-02-04T07:20:42.624Z,79.11
2016-02-04T07:21:42.620Z,79.21
2016-02-04T07:22:42.622Z,79.02
2016-02-04T07:23:42.624Z,78.54
2016-02-04T07:24:42.612Z,78.73
2016-02-04T07:25:42.614Z,79.11
2016-02-04T07:26:42.602Z,79.02
2016-02-04T07:27:42.608Z,79.02
2016-02-04T07:28:42.594Z,78.73
2016-02-04T07:29:42.597Z,79.21
2016-02-04T07:30:42.599Z,79.21
2016-02-04T07:31:42.588Z,79.02
2016-02-04T07:32:42.608Z,79.02
2016-02-04T07:33:49.221Z,79.68
2016-02-04T07:34:42.584Z,79.87
2016-02-04T07:35:42.587Z,79.87
2016-02-04T07:36:42.590Z,79.96
2016-02-04T07:37:42.576Z,79.87
2016-02-04T07:38:42.579Z,79.58
2016-02-04T07:39:42.569Z,79.02
2016-02-04T07:40:42.571Z,78.83
2016-02-04T07:41:42.575Z,79.96
2016-02-04T07:42:42.563Z,80.06
2016-02-04T07:43:42.565Z,80.06
2016-02-04T07:44:42.552Z,80.06
2016-02-04T07:45:42.555Z,80.25
2016-02-04T07:46:42.544Z,80.06
2016-02-04T07:47:42.547Z,80.25
2016-02-04T07:48:42.564Z,79.96
2016-02-04T07:49:42.536Z,80.15
2016-02-04T07:50:42.539Z,81.01
2016-02-04T07:51:42.543Z,81.67
2016-02-04T07:52:42.549Z,81.38
2016-02-04T07:53:45.771Z,81.67
2016-02-04T07:54:42.525Z,81.57
2016-02-04T07:55:42.543Z,82.05
2016-02-04T07:56:42.530Z,81.67
2016-02-04T07:57:42.533Z,81.86
2016-02-04T07:58:42.536Z,81.67
2016-02-04T07:59:42.508Z,81.57
2016-02-04T08:00:42.511Z,81.1
2016-02-04T08:01:42.514Z,81.38
2016-02-04T08:02:42.502Z,81.76
2016-02-04T08:03:42.504Z,81.2
2016-02-04T08:04:42.510Z,81.29
2016-02-04T08:05:42.497Z,81.01
2016-02-04T08:06:42.519Z,81.01
2016-02-04T08:07:42.491Z,80.44
2016-02-04T08:08:42.510Z,79.87
2016-02-04T08:09:42.496Z,79.21
2016-02-04T08:10:42.484Z,79.39
2016-02-04T08:11:47.990Z,79.3
2016-02-04T08:12:42.475Z,78.96
2016-02-04T08:13:42.477Z,79.25
2016-02-04T08:14:42.481Z,78.67
2016-02-04T08:15:42.484Z,78.49
2016-02-04T08:16:42.548Z,77.92
2016-02-04T08:17:42.473Z,76.78
2016-02-04T08:18:42.478Z,75.59
2016-02-04T08:19:42.466Z,74.45
2016-02-04T08:20:42.484Z,72.64
2016-02-04T08:21:42.487Z,70.88
2016-02-04T08:22:42.458Z,68.98
2016-02-04T08:23:46.195Z,68.54
2016-02-04T08:24:42.464Z,68.44
2016-02-04T08:25:42.467Z,67.5
2016-02-04T08:26:42.485Z,67.12
2016-02-04T08:27:42.456Z,66.55
2016-02-04T08:28:46.162Z,67.4
2016-02-04T08:29:42.493Z,66.83
2016-02-04T08:30:42.464Z,67.12
2016-02-04T08:31:42.466Z,67.59
2016-02-04T08:32:42.469Z,67.88
2016-02-04T08:33:42.457Z,67.79
2016-02-04T08:34:42.475Z,67.65
2016-02-04T08:35:42.462Z,68.6
2016-02-04T08:36:42.480Z,69.36
2016-02-04T08:37:42.468Z,69.84
2016-02-04T08:38:42.471Z,69.93
2016-02-04T08:39:42.474Z,69.74
2016-02-04T08:40:42.477Z,69.46
2016-02-04T08:41:42.479Z,69.46
2016-02-04T08:42:42.466Z,69.84
2016-02-04T08:43:42.474Z,69.74
2016-02-04T08:44:42.493Z,69.84
2016-02-04T08:45:42.480Z,70.21
2016-02-04T08:46:42.483Z,69.65
2016-02-04T08:47:42.470Z,70.59
2016-02-04T08:48:42.473Z,70.59
2016-02-04T08:49:42.475Z,70.88
2016-02-04T08:50:42.777Z,70.98
2016-02-04T08:51:42.478Z,70.78
2016-02-04T08:52:42.481Z,71.55
2016-02-04T08:53:42.483Z,71.45
2016-02-04T08:54:42.471Z,71.92
2016-02-04T08:55:42.488Z,71.92
2016-02-04T08:56:42.477Z,72.11
2016-02-04T08:57:42.479Z,72.02
2016-02-04T08:58:42.482Z,72.21
2016-02-04T08:59:42.484Z,71.98
2016-02-04T09:00:42.518Z,72.08
2016-02-04T09:01:42.490Z,72.08
2016-02-04T09:02:42.492Z,72.64
2016-02-04T09:03:42.480Z,73.12
2016-02-04T09:04:42.483Z,73.12
2016-02-04T09:05:42.501Z,72.64
2016-02-04T09:06:43.536Z,72.08
2016-02-04T09:07:42.491Z,72.27
2016-02-04T09:08:42.494Z,72.74
2016-02-04T09:09:42.480Z,72.55
2016-02-04T09:10:42.484Z,72.55
2016-02-04T09:11:42.487Z,72.45
2016-02-04T09:12:42.474Z,71.41
2016-02-04T09:13:42.477Z,71.7
2016-02-04T09:14:42.467Z,71.98
2016-02-04T09:15:42.470Z,72.45
2016-02-04T09:16:42.473Z,72.17
2016-02-04T09:17:42.476Z,72.08
2016-02-04T09:18:42.463Z,72.36
2016-02-04T09:19:42.465Z,72.27
2016-02-04T09:20:42.463Z,73.22
2016-02-04T09:21:42.465Z,72.08
2016-02-04T09:22:42.451Z,72.74
2016-02-04T09:23:42.457Z,72.74
2016-02-04T09:24:42.459Z,72.84
2016-02-04T09:25:42.462Z,72.64
2016-02-04T09:26:42.464Z,72.74
2016-02-04T09:27:42.467Z,73.12
2016-02-04T09:28:42.454Z,72.64
2016-02-04T09:29:43.144Z,71.6
2016-02-04T09:30:42.460Z,71.89
2016-02-04T09:31:42.479Z,72.36
2016-02-04T09:32:42.465Z,72.64
2016-02-04T09:33:42.454Z,71.89
2016-02-04T09:34:42.457Z,71.51
2016-02-04T09:35:42.285Z,71.41
2016-02-04T09:36:42.462Z,71.6
2016-02-04T09:37:42.464Z,71.89
2016-02-04T09:38:42.451Z,71.51
2016-02-04T09:39:42.454Z,71.41
2016-02-04T09:40:42.456Z,71.6
2016-02-04T09:41:42.459Z,71.32
2016-02-04T09:42:42.462Z,71.6
2016-02-04T09:43:42.446Z,71.51
2016-02-04T09:44:42.608Z,70.98
2016-02-04T09:45:42.467Z,71.36
2016-02-04T09:46:42.454Z,71.07
2016-02-04T09:47:42.458Z,70.69
2016-02-04T09:48:42.460Z,70.03
2016-02-04T09:49:42.823Z,69.65
2016-02-04T09:50:42.435Z,68.98
2016-02-04T09:51:42.470Z,69.36
2016-02-04T09:52:42.441Z,69.08
2016-02-04T09:53:42.428Z,68.41
2016-02-04T09:54:42.434Z,68.32
2016-02-04T09:55:42.484Z,67.27
2016-02-04T09:56:42.439Z,66.14
2016-02-04T09:57:42.444Z,66.89
2016-02-04T09:58:42.431Z,67.75
2016-02-04T09:59:42.449Z,67.08
2016-02-04T10:00:42.529Z,66.42
2016-02-04T10:01:42.439Z,66.8
2016-02-04T10:02:42.429Z,65.85
2016-02-04T10:03:42.432Z,65.66
2016-02-04T10:04:42.434Z,67.37
2016-02-04T10:05:42.546Z,67.18
2016-02-04T10:06:42.423Z,66.52
2016-02-04T10:07:42.444Z,66.71
2016-02-04T10:08:42.415Z,65.69
2016-02-04T10:09:42.433Z,65.41
2016-02-04T10:10:42.420Z,65.12
2016-02-04T10:11:42.423Z,64.65
2016-02-04T10:12:42.425Z,64.56
2016-02-04T10:13:42.944Z,64.56
2016-02-04T10:14:42.446Z,64.94
2016-02-04T10:15:42.434Z,63.98
2016-02-04T10:16:42.436Z,64.27
2016-02-04T10:17:42.439Z,64.56
2016-02-04T10:18:42.520Z,64.37
2016-02-04T10:19:42.447Z,64.46
2016-02-04T10:20:42.417Z,64.65
2016-02-04T10:21:42.422Z,65.03
2016-02-04T10:22:42.397Z,64.65
2016-02-04T10:23:42.388Z,63.32
2016-02-04T10:24:42.817Z,63.79
2016-02-04T10:25:42.369Z,64.94
2016-02-04T10:26:42.352Z,64.46
2016-02-04T10:27:42.554Z,64.75
2016-02-04T10:28:42.349Z,65.41
2016-02-04T10:29:42.348Z,65.69
2016-02-04T10:30:42.330Z,64.94
2016-02-04T10:31:42.331Z,65.03
2016-02-04T10:32:42.566Z,65.12
2016-02-04T10:33:42.333Z,65.03
2016-02-04T10:34:42.319Z,65.19
2016-02-04T10:35:42.320Z,64.94
2016-02-04T10:36:42.322Z,64.71
2016-02-04T10:37:42.341Z,65.09
2016-02-04T10:38:42.327Z,65.12
2016-02-04T10:39:42.329Z,65.12
2016-02-04T10:40:42.316Z,64.24
2016-02-04T10:41:42.319Z,64.33
2016-02-04T10:42:42.336Z,64.56
2016-02-04T10:43:42.324Z,65.5
2016-02-04T10:44:42.344Z,64.46
2016-02-04T10:45:42.316Z,63.86
2016-02-04T10:46:42.319Z,64.24
2016-02-04T10:47:42.321Z,65.12
2016-02-04T10:48:42.324Z,64.94
2016-02-04T10:49:42.624Z,64.17
2016-02-04T10:50:42.314Z,64.56
2016-02-04T10:51:42.317Z,65.12
2016-02-04T10:52:42.320Z,65.12
2016-02-04T10:53:42.354Z,64.46
2016-02-04T10:54:42.326Z,64.08
2016-02-04T10:55:42.329Z,64.75
2016-02-04T10:56:42.317Z,64.65
2016-02-04T10:57:42.647Z,65
2016-02-04T10:58:42.322Z,64.94
2016-02-04T10:59:43.076Z,65.41
2016-02-04T11:00:42.313Z,65.5
2016-02-04T11:01:42.315Z,64.56
2016-02-04T11:02:42.318Z,64.65
2016-02-04T11:03:42.305Z,64.56
2016-02-04T11:04:43.121Z,64.94
2016-02-04T11:05:42.310Z,64.84
2016-02-04T11:06:42.333Z,65.69
2016-02-04T11:07:42.320Z,65.79
2016-02-04T11:08:42.338Z,65.88
2016-02-04T11:09:42.310Z,65.69
2016-02-04T11:10:42.735Z,66.27
2016-02-04T11:11:43.113Z,65.95
2016-02-04T11:12:42.319Z,66.08
2016-02-04T11:13:42.322Z,65.95
2016-02-04T11:14:43.122Z,66.46
2016-02-04T11:15:42.312Z,65.75
2016-02-04T11:16:43.190Z,66.55
2016-02-04T11:17:42.333Z,66.46
2016-02-04T11:18:42.304Z,65.5
2016-02-04T11:19:42.308Z,64.75
2016-02-04T11:20:42.311Z,64.84
2016-02-04T11:21:42.313Z,66.04
2016-02-04T11:22:42.332Z,66.08
2016-02-04T11:23:42.319Z,66.17
2016-02-04T11:24:42.306Z,66.36
2016-02-04T11:25:42.308Z,64.94
2016-02-04T11:26:42.312Z,65.69
2016-02-04T11:27:42.330Z,65.03
2016-02-04T11:28:42.317Z,65
2016-02-04T11:29:42.320Z,65.47
2016-02-04T11:30:42.307Z,66.71
2016-02-04T11:31:42.315Z,65.66
2016-02-04T11:32:42.302Z,65.37
2016-02-04T11:33:42.320Z,66.52
2016-02-04T11:34:42.307Z,66.71
2016-02-04T11:35:42.326Z,66.71
2016-02-04T11:36:42.298Z,65.37
2016-02-04T11:37:42.315Z,67.27
2016-02-04T11:38:42.304Z,66.61
2016-02-04T11:39:42.321Z,66.8
2016-02-04T11:40:42.309Z,67.27
2016-02-04T11:41:42.327Z,66.99
2016-02-04T11:42:42.298Z,66.61
2016-02-04T11:43:42.306Z,68.51
2016-02-04T11:44:42.308Z,68.41
2016-02-04T11:45:42.295Z,68.32
2016-02-04T11:46:42.314Z,68.6
2016-02-04T11:47:42.300Z,68.98
2016-02-04T11:48:42.319Z,69.17
2016-02-04T11:49:42.305Z,69.55
2016-02-04T11:50:42.293Z,70.21
2016-02-04T11:51:42.314Z,70.59
2016-02-04T11:52:42.301Z,70.69
2016-02-04T11:53:42.304Z,70.69
2016-02-04T11:54:42.306Z,70.12
2016-02-04T11:55:42.312Z,70.5
2016-02-04T11:56:42.345Z,72.02
2016-02-04T11:57:42.317Z,71.36
2016-02-04T11:58:42.304Z,72.11
2016-02-04T11:59:42.322Z,73.07
2016-02-04T12:00:42.309Z,72.02
2016-02-04T12:01:42.296Z,73.07
2016-02-04T12:02:42.331Z,73.82
2016-02-04T12:03:42.318Z,73.25
2016-02-04T12:04:42.305Z,73.63
2016-02-04T12:05:42.324Z,74.3
2016-02-04T12:06:42.296Z,74.11
2016-02-04T12:07:42.282Z,73.44
2016-02-04T12:08:42.285Z,73.07
2016-02-04T12:09:42.318Z,74.3
2016-02-04T12:10:42.290Z,74.11
2016-02-04T12:11:42.293Z,74.49
2016-02-04T12:12:42.327Z,76.01
2016-02-04T12:13:42.284Z,75.02
2016-02-04T12:14:42.270Z,75.49
2016-02-04T12:15:42.274Z,75.02
2016-02-04T12:16:42.292Z,75.78
2016-02-04T12:17:42.279Z,76.44
2016-02-04T12:18:42.283Z,77.11
2016-02-04T12:19:42.269Z,77.2
2016-02-04T12:20:42.272Z,76.92
2016-02-04T12:21:42.274Z,77.67
2016-02-04T12:22:42.309Z,78.05
2016-02-04T12:23:42.267Z,77.39
2016-02-04T12:24:42.270Z,77.96
2016-02-04T12:25:42.288Z,78.43
2016-02-04T12:26:42.275Z,78.91
2016-02-04T12:27:42.293Z,78.72
2016-02-04T12:28:42.295Z,80.14
2016-02-04T12:29:42.251Z,79.47
2016-02-04T12:30:42.271Z,80.04
2016-02-04T12:31:42.257Z,79.38
2016-02-04T12:32:42.260Z,78.72
2016-02-04T12:33:42.263Z,80.14
2016-02-04T12:34:42.266Z,79.28
2016-02-04T12:35:42.271Z,79.28
2016-02-04T12:36:42.258Z,80.33
2016-02-04T12:37:42.261Z,79.28
2016-02-04T12:38:42.248Z,79.38
2016-02-04T12:39:42.250Z,79.44
2016-02-04T12:40:42.257Z,79.47
2016-02-04T12:41:42.244Z,79.76
2016-02-04T12:42:42.246Z,81.18
2016-02-04T12:43:42.258Z,81.14
2016-02-04T12:44:42.230Z,79.1
2016-02-04T12:45:42.233Z,79.28
2016-02-04T12:46:42.236Z,79
2016-02-04T12:47:42.239Z,80.14
2016-02-04T12:48:42.241Z,79.95
2016-02-04T12:49:42.259Z,79.66
2016-02-04T12:50:42.231Z,80.14
2016-02-04T12:51:42.250Z,80.14
2016-02-04T12:52:42.222Z,80.04
2016-02-04T12:53:42.225Z,79.95
2016-02-04T12:54:42.211Z,81.37
2016-02-04T12:55:42.222Z,79.95